Time;durP1;ratioP1;P1;durP2;ratioP2;P2;SDS_P1;SDS_P2;PMS_P1;PMS_P2;Temp;Humidity;BMP_temperature;BMP_pressure;BME280_temperature;BME280_humidity;BME280_pressure;Samples;Min_cycle;Max_cycle;Signal;HPM_P1;HPM_P2
2024/02/19 00:01:09;;;;;;;2.30;1.53;;;8.30;99.90;;;;;;4186455;28;20794;-69
2024/02/19 00:03:14;;;;;;;1.63;1.37;;;8.30;99.90;;;;;;4185721;28;20683;-70
2024/02/19 00:05:16;;;;;;;1.87;1.50;;;8.30;99.90;;;;;;4189154;28;20203;-70
2024/02/19 00:07:17;;;;;;;2.73;1.20;;;8.40;99.90;;;;;;4183922;28;20299;-70
2024/02/19 00:09:19;;;;;;;1.50;1.20;;;8.40;99.90;;;;;;4187142;28;20643;-70
2024/02/19 00:11:21;;;;;;;2.10;1.30;;;8.40;99.90;;;;;;4185278;28;20216;-70
2024/02/19 00:13:23;;;;;;;4.10;1.60;;;8.40;99.90;;;;;;4187755;28;20270;-70
2024/02/19 00:15:25;;;;;;;1.93;1.17;;;8.40;99.90;;;;;;4185014;28;20228;-70
2024/02/19 00:17:27;;;;;;;3.20;1.20;;;8.50;99.90;;;;;;4186400;28;20692;-70
2024/02/19 00:19:32;;;;;;;1.67;1.03;;;8.50;99.90;;;;;;4185498;28;20209;-70
2024/02/19 00:21:34;;;;;;;2.10;1.20;;;8.50;99.90;;;;;;4186552;28;20770;-70
2024/02/19 00:23:36;;;;;;;1.30;1.00;;;8.50;99.90;;;;;;4185693;28;20225;-70
2024/02/19 00:25:38;;;;;;;1.97;1.10;;;8.50;99.90;;;;;;4187386;28;20212;-70
2024/02/19 00:27:42;;;;;;;2.33;1.27;;;8.50;99.90;;;;;;4185664;28;20291;-69
2024/02/19 00:29:44;;;;;;;1.10;1.00;;;8.50;99.90;;;;;;4186828;28;20209;-70
2024/02/19 00:31:46;;;;;;;1.10;1.00;;;8.50;99.90;;;;;;4186287;28;20573;-69
2024/02/19 00:33:47;;;;;;;0.87;0.80;;;8.60;99.90;;;;;;4185802;28;20251;-70
2024/02/19 00:35:53;;;;;;;1.23;0.97;;;8.60;99.90;;;;;;4188210;28;20259;-70
2024/02/19 00:37:58;;;;;;;1.40;0.97;;;8.60;99.90;;;;;;4184750;28;20205;-70
2024/02/19 00:40:00;;;;;;;1.63;1.00;;;8.70;99.90;;;;;;4185614;28;20324;-70
2024/02/19 00:42:02;;;;;;;1.70;0.90;;;8.70;99.90;;;;;;4187374;28;20240;-70
2024/02/19 00:44:05;;;;;;;1.67;0.83;;;8.70;99.90;;;;;;4185758;28;20204;-70
2024/02/19 00:46:07;;;;;;;1.33;0.90;;;8.70;99.90;;;;;;4187860;28;20219;-70
2024/02/19 00:48:09;;;;;;;1.00;0.90;;;8.70;99.90;;;;;;4184200;28;20263;-70
2024/02/19 00:50:11;;;;;;;1.47;1.03;;;8.70;99.90;;;;;;4185821;28;20216;-70
2024/02/19 00:52:14;;;;;;;1.47;1.07;;;8.70;99.90;;;;;;4184527;28;20287;-70
2024/02/19 00:54:18;;;;;;;0.80;0.80;;;8.80;99.90;;;;;;4187384;28;20246;-70
2024/02/19 00:56:20;;;;;;;1.50;1.00;;;8.70;99.90;;;;;;4186521;28;20193;-71
2024/02/19 00:58:22;;;;;;;2.50;1.00;;;8.70;99.90;;;;;;4182544;28;20204;-70
2024/02/19 01:00:24;;;;;;;2.03;0.90;;;8.70;99.90;;;;;;4184624;28;20284;-70
2024/02/19 01:02:26;;;;;;;1.90;0.80;;;8.70;99.90;;;;;;4185188;28;20224;-70
2024/02/19 01:04:27;;;;;;;1.33;0.90;;;8.70;99.90;;;;;;4185648;28;20260;-70
2024/02/19 01:06:29;;;;;;;1.83;0.90;;;8.70;99.90;;;;;;4185683;28;20211;-70
2024/02/19 01:08:33;;;;;;;3.00;0.97;;;8.70;99.90;;;;;;4188123;28;20237;-70
2024/02/19 01:10:35;;;;;;;1.43;1.00;;;8.70;99.90;;;;;;4184626;28;20260;-70
2024/02/19 01:12:38;;;;;;;2.00;0.70;;;8.70;99.90;;;;;;4145036;28;1099067;-70
2024/02/19 01:14:40;;;;;;;1.07;0.87;;;8.70;99.90;;;;;;4187511;28;20919;-70
2024/02/19 01:16:42;;;;;;;0.80;0.73;;;8.70;99.90;;;;;;4188694;28;20232;-70
2024/02/19 01:18:45;;;;;;;0.90;0.87;;;8.70;99.90;;;;;;4183740;28;20205;-70
2024/02/19 01:20:48;;;;;;;1.67;0.90;;;8.70;99.90;;;;;;4189980;28;20217;-70
2024/02/19 01:22:51;;;;;;;1.77;0.70;;;8.70;99.90;;;;;;4185384;28;20298;-70
2024/02/19 01:24:56;;;;;;;0.70;0.70;;;8.80;99.90;;;;;;4188877;28;20197;-70
2024/02/19 01:26:58;;;;;;;2.50;0.83;;;8.70;99.90;;;;;;4182932;28;20217;-70
2024/02/19 01:29:00;;;;;;;2.43;0.80;;;8.70;99.90;;;;;;4183767;28;20228;-70
2024/02/19 01:31:02;;;;;;;1.27;0.80;;;8.70;99.90;;;;;;4184576;28;20856;-70
2024/02/19 01:33:04;;;;;;;0.80;0.70;;;8.70;99.90;;;;;;4184450;28;20278;-70
2024/02/19 01:35:08;;;;;;;2.20;0.90;;;8.70;99.90;;;;;;4187404;28;20280;-70
2024/02/19 01:37:10;;;;;;;2.27;0.77;;;8.80;99.90;;;;;;4183732;28;20210;-70
2024/02/19 01:39:12;;;;;;;1.97;0.80;;;8.70;99.90;;;;;;4183470;28;20217;-70
2024/02/19 01:41:17;;;;;;;1.60;0.87;;;8.80;99.90;;;;;;4183233;28;20292;-71
2024/02/19 01:43:19;;;;;;;1.23;0.93;;;8.70;99.90;;;;;;4186111;28;20825;-70
2024/02/19 01:45:27;;;;;;;2.30;0.87;;;8.70;99.90;;;;;;4184627;28;20235;-71
2024/02/19 01:47:30;;;;;;;1.77;0.77;;;8.70;99.90;;;;;;4191077;28;20258;-70
2024/02/19 01:49:33;;;;;;;1.80;0.77;;;8.80;99.90;;;;;;4193239;28;20219;-71
2024/02/19 01:51:37;;;;;;;3.60;0.63;;;8.80;99.90;;;;;;4191797;28;20635;-71
2024/02/19 01:53:41;;;;;;;1.13;0.77;;;8.70;99.90;;;;;;4192180;28;20224;-71
2024/02/19 01:55:42;;;;;;;2.33;0.90;;;8.70;99.90;;;;;;4191919;28;20259;-71
2024/02/19 01:57:46;;;;;;;1.67;1.00;;;8.70;99.90;;;;;;4190078;28;20563;-71
2024/02/19 01:59:50;;;;;;;1.77;1.00;;;8.70;99.90;;;;;;4190598;28;20641;-71
2024/02/19 02:01:54;;;;;;;0.87;0.60;;;8.70;99.90;;;;;;4187799;28;20250;-70
2024/02/19 02:03:58;;;;;;;3.20;0.67;;;8.70;99.90;;;;;;4187307;28;20205;-71
2024/02/19 02:05:59;;;;;;;2.00;0.80;;;8.70;99.90;;;;;;4185138;28;20251;-70
2024/02/19 02:08:05;;;;;;;1.43;0.70;;;8.70;99.90;;;;;;4181528;28;20212;-71
2024/02/19 02:10:07;;;;;;;0.97;0.80;;;8.80;99.90;;;;;;4184989;28;20214;-71
2024/02/19 02:12:11;;;;;;;1.07;0.70;;;8.80;99.90;;;;;;4185865;28;20570;-71
2024/02/19 02:14:14;;;;;;;1.00;0.70;;;8.80;99.90;;;;;;4185070;28;20673;-71
2024/02/19 02:16:24;;;;;;;0.80;0.60;;;8.70;99.90;;;;;;4187212;28;20311;-71
2024/02/19 02:18:26;;;;;;;1.03;0.80;;;8.70;99.90;;;;;;4184397;28;20267;-70
2024/02/19 02:20:27;;;;;;;0.83;0.60;;;8.80;99.90;;;;;;4186455;28;20243;-69
2024/02/19 02:22:29;;;;;;;2.10;1.10;;;8.70;99.90;;;;;;4182476;28;20257;-70
2024/02/19 02:24:31;;;;;;;1.00;0.80;;;8.70;99.90;;;;;;4188061;28;20308;-70
2024/02/19 02:26:39;;;;;;;2.47;0.87;;;8.60;99.90;;;;;;4183864;28;20236;-70
2024/02/19 02:28:42;;;;;;;4.20;1.00;;;8.50;99.90;;;;;;4184625;28;20211;-70
2024/02/19 02:30:44;;;;;;;1.37;0.90;;;8.40;99.90;;;;;;4182948;28;20200;-70
2024/02/19 02:32:45;;;;;;;0.90;0.70;;;8.30;99.90;;;;;;4185016;28;20619;-71
2024/02/19 02:34:47;;;;;;;0.83;0.67;;;8.30;99.90;;;;;;4182571;28;20222;-69
2024/02/19 02:36:49;;;;;;;2.43;0.87;;;8.20;99.90;;;;;;4186686;28;20645;-70
2024/02/19 02:38:51;;;;;;;0.90;0.70;;;8.20;99.90;;;;;;4186041;28;20238;-70
2024/02/19 02:40:53;;;;;;;1.73;0.90;;;8.10;99.90;;;;;;4186310;28;20225;-69
2024/02/19 02:42:56;;;;;;;1.80;1.10;;;8.10;99.90;;;;;;4188524;28;20221;-70
2024/02/19 02:45:00;;;;;;;2.23;1.13;;;8.10;99.90;;;;;;4185105;28;20206;-70
2024/02/19 02:47:03;;;;;;;1.13;1.03;;;8.10;99.90;;;;;;4184502;28;20299;-69
2024/02/19 02:49:05;;;;;;;3.03;1.00;;;8.00;99.90;;;;;;4182704;28;20232;-70
2024/02/19 02:51:07;;;;;;;1.17;1.00;;;8.00;99.90;;;;;;4185707;28;20209;-69
2024/02/19 02:53:09;;;;;;;1.80;1.00;;;7.90;99.90;;;;;;4184217;28;20715;-69
2024/02/19 02:55:11;;;;;;;1.80;1.07;;;8.00;99.90;;;;;;4183792;28;20234;-69
2024/02/19 02:57:12;;;;;;;1.73;0.70;;;7.90;99.90;;;;;;4183188;28;20200;-70
2024/02/19 02:59:15;;;;;;;0.90;0.80;;;7.90;99.90;;;;;;4184837;28;20918;-69
2024/02/19 03:01:18;;;;;;;1.60;0.90;;;7.90;99.90;;;;;;4182296;28;20284;-70
2024/02/19 03:03:20;;;;;;;4.83;1.27;;;7.80;99.90;;;;;;4184547;28;20262;-70
2024/02/19 03:05:22;;;;;;;3.60;1.07;;;7.80;99.90;;;;;;4183513;28;20219;-70
2024/02/19 03:07:26;;;;;;;4.00;1.80;;;7.70;99.90;;;;;;4186266;28;20231;-69
2024/02/19 03:09:29;;;;;;;1.90;1.10;;;7.70;99.90;;;;;;4189875;28;20216;-70
2024/02/19 03:11:31;;;;;;;1.50;0.80;;;7.70;99.90;;;;;;4185181;28;20244;-69
2024/02/19 03:13:33;;;;;;;1.20;1.00;;;7.70;99.90;;;;;;4187301;28;20237;-69
2024/02/19 03:15:35;;;;;;;0.97;0.83;;;7.70;99.90;;;;;;4183040;28;20279;-70
2024/02/19 03:17:38;;;;;;;0.80;0.60;;;7.70;99.90;;;;;;4181100;28;20675;-70
2024/02/19 03:19:41;;;;;;;3.80;1.17;;;7.60;99.90;;;;;;4183670;28;20218;-69
2024/02/19 03:21:43;;;;;;;1.17;0.70;;;7.60;99.90;;;;;;4185134;28;20202;-69
2024/02/19 03:23:51;;;;;;;0.63;0.63;;;7.60;99.90;;;;;;4184981;28;20284;-70
2024/02/19 03:25:53;;;;;;;1.03;0.77;;;7.60;99.90;;;;;;4182698;28;20201;-69
2024/02/19 03:27:56;;;;;;;0.70;0.63;;;7.60;99.90;;;;;;4183133;28;20237;-69
2024/02/19 03:29:58;;;;;;;1.43;0.70;;;7.50;99.90;;;;;;4182196;28;20214;-70
2024/02/19 03:32:01;;;;;;;1.10;0.80;;;7.50;99.90;;;;;;4185634;28;20210;-69
2024/02/19 03:34:02;;;;;;;0.70;0.60;;;7.50;99.90;;;;;;4182852;28;20225;-70
2024/02/19 03:36:07;;;;;;;1.30;0.60;;;7.50;99.90;;;;;;4182502;28;20226;-70
2024/02/19 03:38:09;;;;;;;1.30;0.80;;;7.40;99.90;;;;;;4182647;28;20214;-70
2024/02/19 03:40:11;;;;;;;2.27;0.80;;;7.40;99.90;;;;;;4185751;28;20218;-70
2024/02/19 03:42:13;;;;;;;2.80;0.60;;;7.40;99.90;;;;;;4185923;28;20203;-69
2024/02/19 03:44:15;;;;;;;0.50;0.50;;;7.30;99.90;;;;;;4184930;28;20202;-69
2024/02/19 03:46:17;;;;;;;0.83;0.50;;;7.30;99.90;;;;;;4188313;28;20556;-69
2024/02/19 03:48:21;;;;;;;0.83;0.60;;;7.30;99.90;;;;;;4183919;28;20650;-70
2024/02/19 03:50:23;;;;;;;0.53;0.50;;;7.30;99.90;;;;;;4182817;28;20666;-70
2024/02/19 03:52:24;;;;;;;0.57;0.40;;;7.20;99.90;;;;;;4185566;28;20732;-70
2024/02/19 03:54:26;;;;;;;0.50;0.40;;;7.20;99.90;;;;;;4184885;28;20198;-70
2024/02/19 03:56:28;;;;;;;0.40;0.40;;;7.20;99.90;;;;;;4185175;28;20275;-70
2024/02/19 03:58:32;;;;;;;0.40;0.40;;;7.20;99.90;;;;;;4182086;28;20230;-69
2024/02/19 04:00:34;;;;;;;0.60;0.50;;;7.20;99.90;;;;;;4182154;28;20210;-69
2024/02/19 04:02:36;;;;;;;0.50;0.50;;;7.20;99.90;;;;;;4183573;28;20691;-70
2024/02/19 04:04:42;;;;;;;1.23;0.63;;;7.10;99.90;;;;;;4185092;28;20737;-70
2024/02/19 04:06:44;;;;;;;1.00;0.50;;;7.10;99.90;;;;;;4189625;28;20236;-69
2024/02/19 04:08:46;;;;;;;1.90;0.50;;;7.10;99.90;;;;;;4183462;28;20587;-70
2024/02/19 04:10:48;;;;;;;0.70;0.40;;;7.10;99.90;;;;;;4186414;28;20257;-70
2024/02/19 04:12:50;;;;;;;0.30;0.30;;;7.00;99.90;;;;;;4185349;28;20321;-70
2024/02/19 04:14:51;;;;;;;0.40;0.40;;;7.00;99.90;;;;;;4186166;28;20234;-69
2024/02/19 04:16:53;;;;;;;0.20;0.20;;;7.00;99.90;;;;;;4189882;28;20659;-70
2024/02/19 04:18:55;;;;;;;0.70;0.33;;;6.90;99.90;;;;;;4186934;28;20240;-69
2024/02/19 04:20:58;;;;;;;2.57;0.40;;;6.90;99.90;;;;;;4187560;28;20492;-70
2024/02/19 04:23:00;;;;;;;0.27;0.27;;;6.90;99.90;;;;;;4187431;28;20297;-69
2024/02/19 04:25:05;;;;;;;0.20;0.20;;;6.90;99.90;;;;;;4187363;28;20252;-70
2024/02/19 04:27:07;;;;;;;0.20;0.20;;;6.80;99.90;;;;;;4183672;28;20663;-69
2024/02/19 04:29:09;;;;;;;0.20;0.20;;;6.80;99.90;;;;;;4188038;28;20513;-69
2024/02/19 04:31:11;;;;;;;2.33;0.20;;;6.80;99.90;;;;;;4187468;28;20640;-70
2024/02/19 04:33:13;;;;;;;0.47;0.10;;;6.80;99.90;;;;;;4189369;28;20309;-70
2024/02/19 04:35:14;;;;;;;3.10;0.60;;;6.70;99.90;;;;;;4188588;28;20444;-70
2024/02/19 04:37:17;;;;;;;0.53;0.30;;;6.70;99.90;;;;;;4187022;28;20476;-69
2024/02/19 04:39:19;;;;;;;1.27;0.20;;;6.70;99.90;;;;;;4184253;28;20237;-70
2024/02/19 04:41:21;;;;;;;0.20;0.20;;;6.70;99.90;;;;;;4186464;28;20452;-70
2024/02/19 04:43:23;;;;;;;0.20;0.20;;;6.70;99.90;;;;;;4186482;28;20279;-70
2024/02/19 04:45:27;;;;;;;0.63;0.30;;;6.70;99.90;;;;;;4187548;28;20539;-69
2024/02/19 04:47:28;;;;;;;0.73;0.30;;;6.60;99.90;;;;;;4188590;28;20226;-69
2024/02/19 04:49:30;;;;;;;0.50;0.30;;;6.60;99.90;;;;;;4185368;28;20455;-69
2024/02/19 04:51:34;;;;;;;0.20;0.20;;;6.60;99.90;;;;;;4186313;28;20209;-69
2024/02/19 04:53:37;;;;;;;2.37;0.20;;;6.50;99.90;;;;;;4186956;28;20556;-70
2024/02/19 04:55:39;;;;;;;0.50;0.23;;;6.50;99.90;;;;;;4186424;28;20452;-69
2024/02/19 04:57:41;;;;;;;3.90;0.30;;;6.50;99.90;;;;;;4187548;28;20491;-70
2024/02/19 04:59:42;;;;;;;0.10;0.10;;;6.50;99.90;;;;;;4187491;28;20477;-69
2024/02/19 05:01:44;;;;;;;0.33;0.20;;;6.50;99.90;;;;;;4185187;28;20475;-69
2024/02/19 05:03:46;;;;;;;0.40;0.40;;;6.50;99.90;;;;;;4185836;28;20486;-69
2024/02/19 05:05:48;;;;;;;0.30;0.20;;;6.50;99.90;;;;;;4201039;28;20451;-69
2024/02/19 05:07:49;;;;;;;0.43;0.20;;;6.50;99.90;;;;;;4186930;28;20532;-70
2024/02/19 05:09:52;;;;;;;0.10;0.10;;;6.50;99.90;;;;;;4186970;28;20595;-69
2024/02/19 05:11:54;;;;;;;1.70;0.30;;;6.50;99.90;;;;;;4186130;28;20225;-75
2024/02/19 05:13:56;;;;;;;0.40;0.40;;;6.50;99.90;;;;;;4188779;28;20277;-70
2024/02/19 05:15:58;;;;;;;0.90;0.40;;;6.40;99.90;;;;;;4191628;28;20477;-71
2024/02/19 05:18:00;;;;;;;0.60;0.60;;;6.50;99.90;;;;;;4187725;28;20975;-69
2024/02/19 05:20:02;;;;;;;0.50;0.40;;;6.40;99.90;;;;;;4186366;28;20983;-70
2024/02/19 05:22:04;;;;;;;0.40;0.40;;;6.40;99.90;;;;;;4185346;28;20851;-70
2024/02/19 05:24:08;;;;;;;0.30;0.30;;;6.40;99.90;;;;;;4184243;28;20255;-70
2024/02/19 05:26:11;;;;;;;0.23;0.23;;;6.40;99.90;;;;;;4182510;28;21002;-71
2024/02/19 05:28:13;;;;;;;0.30;0.30;;;6.40;99.90;;;;;;4187756;28;20293;-72
2024/02/19 05:30:16;;;;;;;0.37;0.30;;;6.40;99.90;;;;;;4183203;28;20974;-71
2024/02/19 05:32:18;;;;;;;0.73;0.40;;;6.40;99.90;;;;;;4183870;28;20329;-70
2024/02/19 05:34:20;;;;;;;0.93;0.40;;;6.40;99.90;;;;;;4183768;28;21170;-70
2024/02/19 05:36:22;;;;;;;1.23;0.40;;;6.40;99.90;;;;;;4183144;28;20226;-71
2024/02/19 05:38:24;;;;;;;0.20;0.20;;;6.30;99.90;;;;;;4189140;28;20502;-71
2024/02/19 05:40:26;;;;;;;1.33;0.30;;;6.40;99.90;;;;;;4184229;28;20464;-70
2024/02/19 05:42:29;;;;;;;0.80;0.30;;;6.40;99.90;;;;;;4185139;28;20475;-70
2024/02/19 05:44:31;;;;;;;0.20;0.20;;;6.30;99.90;;;;;;4185935;28;20445;-70
2024/02/19 05:46:33;;;;;;;0.63;0.20;;;6.30;99.90;;;;;;4188204;28;20816;-71
2024/02/19 05:48:34;;;;;;;0.50;0.20;;;6.30;99.90;;;;;;4184882;28;21072;-71
2024/02/19 05:50:36;;;;;;;2.53;0.20;;;6.30;99.90;;;;;;4185420;28;20456;-71
2024/02/19 05:52:38;;;;;;;0.60;0.30;;;6.30;99.90;;;;;;4183847;28;20704;-71
2024/02/19 05:54:40;;;;;;;0.10;0.10;;;6.30;99.90;;;;;;4187091;28;20496;-70
2024/02/19 05:56:42;;;;;;;1.30;0.20;;;6.30;99.90;;;;;;4185646;28;20607;-71
2024/02/19 05:58:47;;;;;;;0.67;0.30;;;6.30;99.90;;;;;;4186260;28;20847;-71
2024/02/19 06:00:49;;;;;;;0.47;0.30;;;6.40;99.90;;;;;;4179831;28;20484;-71
2024/02/19 06:02:51;;;;;;;0.30;0.30;;;6.30;99.90;;;;;;4181366;28;20480;-71
2024/02/19 06:04:53;;;;;;;0.87;0.20;;;6.30;99.90;;;;;;4184389;28;20606;-71
2024/02/19 06:06:55;;;;;;;1.33;0.10;;;6.30;99.90;;;;;;4184546;28;21118;-71
2024/02/19 06:08:56;;;;;;;0.50;0.30;;;6.30;99.90;;;;;;4184333;28;20514;-72
2024/02/19 06:10:59;;;;;;;0.83;0.40;;;6.30;99.90;;;;;;4184338;28;20233;-71
2024/02/19 06:13:01;;;;;;;1.47;0.37;;;6.30;99.90;;;;;;4183448;28;20494;-71
2024/02/19 06:15:05;;;;;;;0.77;0.40;;;6.30;99.90;;;;;;4183406;28;20480;-70
2024/02/19 06:17:07;;;;;;;0.43;0.20;;;6.30;99.90;;;;;;4181072;28;20491;-71
2024/02/19 06:19:10;;;;;;;0.63;0.20;;;6.30;99.90;;;;;;4184285;28;20797;-71
2024/02/19 06:21:11;;;;;;;0.40;0.30;;;6.30;99.90;;;;;;4185203;28;20469;-71
2024/02/19 06:23:13;;;;;;;1.50;0.30;;;6.30;99.90;;;;;;4184205;28;20479;-71
2024/02/19 06:25:15;;;;;;;0.50;0.23;;;6.30;99.90;;;;;;4184046;28;20301;-71
2024/02/19 06:27:16;;;;;;;0.20;0.20;;;6.30;99.90;;;;;;4183866;28;20471;-72
2024/02/19 06:29:18;;;;;;;1.63;0.40;;;6.30;99.90;;;;;;4183710;28;21009;-71
2024/02/19 06:31:27;;;;;;;1.03;0.50;;;6.40;99.90;;;;;;4183914;28;20654;-71
2024/02/19 06:33:29;;;;;;;5.43;0.97;;;6.30;99.90;;;;;;4183867;28;20528;-71
2024/02/19 06:35:31;;;;;;;1.93;0.90;;;6.40;99.90;;;;;;4184700;28;20474;-71
2024/02/19 06:37:32;;;;;;;2.27;0.80;;;6.40;99.90;;;;;;4183296;28;20520;-71
2024/02/19 06:39:35;;;;;;;1.57;0.83;;;6.40;99.90;;;;;;4183955;28;20495;-72
2024/02/19 06:41:37;;;;;;;1.33;0.70;;;6.40;99.90;;;;;;4183259;28;21022;-71
2024/02/19 06:43:39;;;;;;;1.23;0.80;;;6.40;99.90;;;;;;4180616;28;20859;-71
2024/02/19 06:45:41;;;;;;;0.90;0.50;;;6.40;99.90;;;;;;4183181;28;20527;-72
2024/02/19 06:47:44;;;;;;;0.90;0.60;;;6.40;99.90;;;;;;4183824;28;21234;-71
2024/02/19 06:49:46;;;;;;;2.07;0.90;;;6.40;99.90;;;;;;4180149;28;20498;-71
2024/02/19 06:51:48;;;;;;;2.83;0.80;;;6.40;99.90;;;;;;4182416;28;20952;-71
2024/02/19 06:53:50;;;;;;;3.40;0.90;;;6.40;99.90;;;;;;4183296;28;20495;-71
2024/02/19 06:55:51;;;;;;;4.10;0.80;;;6.40;99.90;;;;;;4181823;28;20205;-74
2024/02/19 06:57:53;;;;;;;0.90;0.70;;;6.40;99.90;;;;;;4182895;28;20481;-73
2024/02/19 06:59:55;;;;;;;2.27;0.90;;;6.40;99.90;;;;;;4187249;28;20239;-75
2024/02/19 07:01:57;;;;;;;2.07;0.80;;;6.40;99.90;;;;;;4181414;28;20452;-74
2024/02/19 07:04:01;;;;;;;4.43;0.97;;;6.40;99.90;;;;;;4182723;28;20450;-72
2024/02/19 07:06:04;;;;;;;3.53;0.90;;;6.40;99.90;;;;;;4182007;28;20266;-75
2024/02/19 07:08:07;;;;;;;1.17;0.80;;;6.30;99.90;;;;;;4178723;28;21478;-72
2024/02/19 07:10:10;;;;;;;2.23;0.80;;;6.30;99.90;;;;;;4170480;28;20447;-72
2024/02/19 07:12:11;;;;;;;2.30;0.60;;;6.30;99.90;;;;;;4182117;28;20864;-71
2024/02/19 07:14:13;;;;;;;1.37;0.70;;;6.30;99.90;;;;;;4182121;28;20456;-72
2024/02/19 07:16:18;;;;;;;2.03;0.70;;;6.30;99.90;;;;;;4185107;28;20483;-72
2024/02/19 07:18:20;;;;;;;0.77;0.50;;;6.30;99.90;;;;;;4183664;28;20468;-72
2024/02/19 07:20:23;;;;;;;3.57;0.90;;;6.30;99.90;;;;;;4183968;28;20475;-72
2024/02/19 07:22:25;;;;;;;1.90;0.60;;;6.30;99.90;;;;;;4182372;28;20489;-72
2024/02/19 07:24:28;;;;;;;4.03;0.80;;;6.40;99.90;;;;;;4182403;28;20443;-72
2024/02/19 07:26:30;;;;;;;1.47;0.77;;;6.30;99.90;;;;;;4179853;28;20508;-72
2024/02/19 07:28:33;;;;;;;2.27;0.90;;;6.30;99.90;;;;;;4180493;28;20275;-72
2024/02/19 07:30:37;;;;;;;2.17;1.00;;;6.30;99.90;;;;;;4182640;28;20476;-73
2024/02/19 07:32:39;;;;;;;2.23;1.10;;;6.40;99.90;;;;;;4180469;28;20253;-72
2024/02/19 07:34:40;;;;;;;1.37;0.93;;;6.40;99.90;;;;;;4184862;28;20484;-73
2024/02/19 07:36:45;;;;;;;1.70;1.10;;;6.40;99.90;;;;;;4183897;28;20516;-73
2024/02/19 07:38:47;;;;;;;1.93;1.10;;;6.40;99.90;;;;;;4185027;28;20444;-73
2024/02/19 07:40:49;;;;;;;1.43;1.00;;;6.40;99.90;;;;;;4199872;28;20455;-73
2024/02/19 07:42:50;;;;;;;2.30;1.33;;;6.40;99.90;;;;;;4189255;28;20563;-73
2024/02/19 07:44:54;;;;;;;2.30;1.20;;;6.40;99.90;;;;;;4191149;28;20441;-73
2024/02/19 07:46:55;;;;;;;4.20;1.50;;;6.40;99.90;;;;;;4185495;28;20289;-73
2024/02/19 07:49:01;;;;;;;3.73;1.30;;;6.40;99.90;;;;;;4188812;28;20456;-73
2024/02/19 07:51:02;;;;;;;5.17;1.57;;;6.30;99.90;;;;;;4186729;28;21033;-73
2024/02/19 07:53:05;;;;;;;7.93;2.17;;;6.30;99.90;;;;;;4190313;28;20459;-73
2024/02/19 07:55:08;;;;;;;7.17;2.03;;;6.30;99.90;;;;;;4185325;28;20630;-73
2024/02/19 07:57:09;;;;;;;4.97;2.00;;;6.40;99.90;;;;;;4185449;28;20214;-73
2024/02/19 07:59:12;;;;;;;4.60;1.70;;;6.40;99.90;;;;;;4192081;28;20515;-73
2024/02/19 08:01:14;;;;;;;2.70;1.50;;;6.40;99.90;;;;;;4188948;28;20788;-73
2024/02/19 08:03:19;;;;;;;4.57;1.20;;;6.40;99.90;;;;;;4185687;28;20226;-75
2024/02/19 08:05:21;;;;;;;3.93;1.70;;;6.40;99.90;;;;;;4186706;28;20229;-73
2024/02/19 08:07:24;;;;;;;2.80;1.63;;;6.40;99.90;;;;;;4186493;28;20495;-73
2024/02/19 08:09:27;;;;;;;4.07;1.40;;;6.40;99.90;;;;;;4189908;28;20447;-73
2024/02/19 08:11:29;;;;;;;2.37;1.10;;;6.40;99.90;;;;;;4188784;28;20522;-72
2024/02/19 08:13:34;;;;;;;4.17;1.17;;;6.40;99.90;;;;;;4186015;28;20531;-73
2024/02/19 08:15:37;;;;;;;3.90;1.00;;;6.40;99.90;;;;;;4185482;28;20494;-72
2024/02/19 08:17:39;;;;;;;4.47;0.93;;;6.40;99.90;;;;;;4186325;28;20494;-73
2024/02/19 08:19:41;;;;;;;3.20;1.23;;;6.50;99.90;;;;;;4187084;28;20467;-73
2024/02/19 08:21:43;;;;;;;4.80;0.93;;;6.50;99.90;;;;;;4187851;28;20451;-72
2024/02/19 08:23:45;;;;;;;2.10;0.87;;;6.50;99.90;;;;;;4182660;28;20909;-74
2024/02/19 08:25:48;;;;;;;1.87;0.90;;;6.50;99.90;;;;;;4187273;28;20615;-73
2024/02/19 08:27:50;;;;;;;1.50;0.90;;;6.50;99.90;;;;;;4183005;28;20194;-73
2024/02/19 08:29:52;;;;;;;5.27;0.83;;;6.50;99.90;;;;;;4185715;28;20203;-74
2024/02/19 08:31:54;;;;;;;1.63;0.60;;;6.50;99.90;;;;;;4185057;28;20302;-74
2024/02/19 08:33:56;;;;;;;1.57;0.73;;;6.50;99.90;;;;;;4184551;28;20488;-74
2024/02/19 08:36:00;;;;;;;1.70;0.53;;;6.50;99.90;;;;;;4188514;28;20226;-74
2024/02/19 08:38:02;;;;;;;1.27;0.50;;;6.60;99.90;;;;;;4186906;28;20230;-74
2024/02/19 08:40:05;;;;;;;7.23;1.00;;;6.60;99.90;;;;;;4186792;28;20292;-74
2024/02/19 08:42:09;;;;;;;9.60;0.80;;;6.70;99.90;;;;;;4182758;28;20276;-73
2024/02/19 08:44:11;;;;;;;3.33;0.80;;;6.70;99.90;;;;;;4187522;28;20202;-74
2024/02/19 08:46:14;;;;;;;17.73;1.20;;;6.70;99.90;;;;;;4184323;28;20674;-74
2024/02/19 08:48:16;;;;;;;12.40;0.90;;;6.70;99.90;;;;;;4188196;28;20207;-73
2024/02/19 08:50:20;;;;;;;5.80;0.70;;;6.70;99.90;;;;;;4184566;28;20213;-73
2024/02/19 08:52:21;;;;;;;1.23;0.50;;;6.70;99.90;;;;;;4185961;28;20874;-73
2024/02/19 08:54:23;;;;;;;0.97;0.67;;;6.80;99.90;;;;;;4184424;28;20191;-73
2024/02/19 08:56:25;;;;;;;2.57;0.60;;;6.70;99.90;;;;;;4186547;28;20243;-73
2024/02/19 08:58:30;;;;;;;0.77;0.63;;;6.70;99.90;;;;;;4185947;28;20219;-74
2024/02/19 09:00:35;;;;;;;1.93;0.40;;;6.80;99.90;;;;;;4186839;28;20240;-72
2024/02/19 09:02:37;;;;;;;0.60;0.50;;;6.80;99.90;;;;;;4190689;28;20244;-73
2024/02/19 09:04:41;;;;;;;1.17;0.40;;;6.80;99.90;;;;;;4187244;28;20234;-74
2024/02/19 09:06:43;;;;;;;1.67;0.30;;;6.80;99.90;;;;;;4188149;28;20562;-74
2024/02/19 09:08:45;;;;;;;0.40;0.40;;;6.80;99.90;;;;;;4187280;28;20202;-73
2024/02/19 09:10:47;;;;;;;0.63;0.40;;;6.90;99.90;;;;;;4184624;28;20684;-73
2024/02/19 09:12:50;;;;;;;0.83;0.40;;;6.80;99.90;;;;;;4183935;28;20229;-73
2024/02/19 09:14:58;;;;;;;1.90;0.40;;;6.80;99.90;;;;;;4184376;28;20623;-72
2024/02/19 09:17:01;;;;;;;0.30;0.30;;;6.80;99.90;;;;;;4185876;28;20289;-72
2024/02/19 09:19:06;;;;;;;1.07;0.40;;;6.90;99.90;;;;;;4186854;28;20207;-76
2024/02/19 09:21:08;;;;;;;1.53;0.50;;;6.90;99.90;;;;;;4189825;28;20230;-73
2024/02/19 09:23:09;;;;;;;0.50;0.30;;;6.90;99.90;;;;;;4185853;28;20272;-73
2024/02/19 09:25:11;;;;;;;1.20;0.30;;;6.90;99.90;;;;;;4186317;28;20726;-72
2024/02/19 09:27:14;;;;;;;0.60;0.50;;;6.90;99.90;;;;;;4185207;28;20213;-72
2024/02/19 09:29:17;;;;;;;2.20;0.60;;;6.90;99.90;;;;;;4185784;28;20293;-73
2024/02/19 09:31:26;;;;;;;1.33;0.40;;;7.00;99.90;;;;;;4186047;28;20213;-73
2024/02/19 09:33:27;;;;;;;0.37;0.30;;;7.00;99.90;;;;;;4183196;28;20318;-72
2024/02/19 09:35:29;;;;;;;2.40;0.50;;;7.00;99.90;;;;;;4184221;28;20234;-72
2024/02/19 09:37:31;;;;;;;1.53;0.30;;;7.00;99.90;;;;;;4183613;28;20671;-72
2024/02/19 09:39:33;;;;;;;0.70;0.40;;;7.00;99.90;;;;;;4183781;28;20211;-72
2024/02/19 09:41:35;;;;;;;1.80;0.40;;;7.10;99.90;;;;;;4186957;28;20231;-72
2024/02/19 09:43:37;;;;;;;0.93;0.40;;;7.00;99.90;;;;;;4181775;28;20227;-72
2024/02/19 09:45:39;;;;;;;0.30;0.30;;;7.10;99.90;;;;;;4188614;28;20764;-71
2024/02/19 09:47:44;;;;;;;1.90;0.40;;;7.10;99.90;;;;;;4183627;28;20235;-72
2024/02/19 09:49:47;;;;;;;0.67;0.30;;;7.20;99.90;;;;;;4185621;28;20198;-72
2024/02/19 09:51:55;;;;;;;0.97;0.40;;;7.20;99.90;;;;;;4183773;28;20679;-72
2024/02/19 09:53:58;;;;;;;0.97;0.40;;;7.20;99.90;;;;;;4188321;28;20237;-72
2024/02/19 09:56:00;;;;;;;0.70;0.50;;;7.20;99.90;;;;;;4182521;28;20301;-72
2024/02/19 09:58:02;;;;;;;0.50;0.40;;;7.20;99.90;;;;;;4187275;28;20218;-72
2024/02/19 10:00:06;;;;;;;0.70;0.50;;;7.30;99.90;;;;;;4187239;28;20794;-72
2024/02/19 10:02:08;;;;;;;0.90;0.57;;;7.30;99.90;;;;;;4185578;28;20287;-72
2024/02/19 10:04:14;;;;;;;1.67;0.70;;;7.30;99.90;;;;;;4185082;28;20214;-72
2024/02/19 10:06:16;;;;;;;1.37;0.93;;;7.30;99.90;;;;;;4185139;28;20202;-72
2024/02/19 10:08:18;;;;;;;1.30;0.90;;;7.40;99.90;;;;;;4185759;28;20618;-72
2024/02/19 10:10:21;;;;;;;1.17;0.80;;;7.40;99.90;;;;;;4186705;28;20306;-73
2024/02/19 10:12:23;;;;;;;5.60;0.83;;;7.50;99.90;;;;;;4181849;28;20669;-72
2024/02/19 10:14:25;;;;;;;4.77;1.00;;;7.60;99.90;;;;;;4187289;28;20227;-72
2024/02/19 10:16:27;;;;;;;1.10;0.60;;;7.60;99.90;;;;;;4183785;28;20261;-72
2024/02/19 10:18:28;;;;;;;1.30;0.90;;;7.70;99.90;;;;;;4190373;28;20232;-72
2024/02/19 10:20:32;;;;;;;3.80;1.47;;;7.70;99.90;;;;;;4187228;28;20206;-71
2024/02/19 10:22:35;;;;;;;2.87;1.20;;;7.70;99.90;;;;;;4185407;28;20228;-77
2024/02/19 10:24:39;;;;;;;0.50;0.50;;;7.70;99.90;;;;;;4184849;28;20204;-72
2024/02/19 10:26:41;;;;;;;2.30;0.50;;;7.90;99.90;;;;;;4188561;28;20666;-72
2024/02/19 10:28:44;;;;;;;0.70;0.50;;;7.90;99.90;;;;;;4183825;28;20283;-71
2024/02/19 10:30:45;;;;;;;1.20;0.60;;;7.90;99.90;;;;;;4187410;28;20244;-71
2024/02/19 10:32:47;;;;;;;1.40;0.57;;;8.00;99.90;;;;;;4186902;28;20702;-73
2024/02/19 10:34:49;;;;;;;0.70;0.50;;;8.00;99.90;;;;;;4183124;28;20240;-72
2024/02/19 10:36:52;;;;;;;1.63;0.50;;;8.00;99.90;;;;;;4183440;28;20822;-72
2024/02/19 10:38:54;;;;;;;0.50;0.40;;;8.00;99.90;;;;;;4182656;28;20919;-72
2024/02/19 10:40:56;;;;;;;0.37;0.30;;;8.10;99.90;;;;;;4185663;28;20317;-70
2024/02/19 10:42:59;;;;;;;2.00;0.43;;;8.10;99.90;;;;;;4183949;28;20231;-71
2024/02/19 10:45:01;;;;;;;0.50;0.50;;;8.10;99.90;;;;;;4186315;28;20215;-71
2024/02/19 10:47:04;;;;;;;0.50;0.40;;;8.10;99.90;;;;;;4185129;28;20904;-71